Impacts TAF Board
For situational awareness. Not to be used for flight planning purposes.
IDs:

KDTW - Detroit Metro/Wayne, MI, US

Issued at 1738 UTC 12 Dec 2018
Updated at 1841 UTC 12 Dec 2018
Potential Impact None Slight Moderate High
Time<<13/19Z 13/20Z 13/21Z 13/22Z 13/23Z 14/00Z 14/01Z 14/02Z 14/03Z 14/04Z 14/05Z 14/06Z 14/07Z
Type PRVL PRVL PRVL PRVL PRVL
VIS >6 >6 >6 >6 >6
CIG 150 150 150 150 150
Cover BKN BKN BKN BKN BKN
FltCat VFR VFR VFR VFR VFR
WX -- -- -- -- --
WDir 200 200 200 200 200
WSpd 5 5 5 5 5
WGst -- -- -- -- --
Raw TAF
KDTW 121738Z 1218/1324 14011KT 6SM HZ BKN090
  FM122100 15009KT P6SM SCT025 OVC050
  FM130100 18008KT 5SM BR OVC020
  TEMPO 1301/1304 5SM -RA BR OVC012
  FM130400 24005KT P6SM BKN012 OVC025
  FM131400 20005KT P6SM SCT025 BKN150


METAR Board
Radar Display
Forecast Discussion
For situational awareness. Not to be used for flight planning purposes.